sensor_id;sensor_type;location;lat;lon;timestamp;P1;durP1;ratioP1;P2;durP2;ratioP2
60068;SDS011;45945;53.350;55.922;2023-02-28T00:00:32;9.73;;;4.72;;
60068;SDS011;45945;53.350;55.922;2023-02-28T00:01:33;11.23;;;6.43;;
60068;SDS011;45945;53.350;55.922;2023-02-28T00:02:33;10.23;;;5.82;;
60068;SDS011;45945;53.350;55.922;2023-02-28T00:03:34;8.18;;;4.53;;
60068;SDS011;45945;53.350;55.922;2023-02-28T00:04:36;8.60;;;4.60;;
60068;SDS011;45945;53.350;55.922;2023-02-28T00:05:37;11.20;;;6.90;;
60068;SDS011;45945;53.350;55.922;2023-02-28T00:06:37;9.60;;;4.03;;
60068;SDS011;45945;53.350;55.922;2023-02-28T00:07:38;9.68;;;5.47;;
60068;SDS011;45945;53.350;55.922;2023-02-28T00:08:39;8.23;;;4.47;;
60068;SDS011;45945;53.350;55.922;2023-02-28T00:09:40;8.25;;;4.38;;
60068;SDS011;45945;53.350;55.922;2023-02-28T00:10:41;10.00;;;5.18;;
60068;SDS011;45945;53.350;55.922;2023-02-28T00:11:42;9.32;;;5.30;;
60068;SDS011;45945;53.350;55.922;2023-02-28T00:14:02;8.95;;;4.68;;
60068;SDS011;45945;53.350;55.922;2023-02-28T00:15:06;9.88;;;6.35;;
60068;SDS011;45945;53.350;55.922;2023-02-28T00:16:09;9.05;;;4.70;;
60068;SDS011;45945;53.350;55.922;2023-02-28T00:17:10;9.43;;;4.68;;
60068;SDS011;45945;53.350;55.922;2023-02-28T00:18:11;10.23;;;4.95;;
60068;SDS011;45945;53.350;55.922;2023-02-28T00:19:12;8.35;;;4.22;;
60068;SDS011;45945;53.350;55.922;2023-02-28T00:20:13;10.30;;;5.60;;
60068;SDS011;45945;53.350;55.922;2023-02-28T00:21:14;8.75;;;4.22;;
60068;SDS011;45945;53.350;55.922;2023-02-28T00:22:16;9.00;;;4.70;;
60068;SDS011;45945;53.350;55.922;2023-02-28T00:23:17;9.75;;;6.25;;
60068;SDS011;45945;53.350;55.922;2023-02-28T00:24:18;9.93;;;4.75;;
60068;SDS011;45945;53.350;55.922;2023-02-28T00:25:19;8.10;;;4.03;;
60068;SDS011;45945;53.350;55.922;2023-02-28T00:26:21;9.23;;;4.45;;
60068;SDS011;45945;53.350;55.922;2023-02-28T00:27:22;10.10;;;6.10;;
60068;SDS011;45945;53.350;55.922;2023-02-28T00:28:22;10.07;;;5.78;;
60068;SDS011;45945;53.350;55.922;2023-02-28T00:29:23;10.05;;;5.75;;
60068;SDS011;45945;53.350;55.922;2023-02-28T00:30:24;10.85;;;5.50;;
60068;SDS011;45945;53.350;55.922;2023-02-28T00:31:25;8.73;;;4.55;;
60068;SDS011;45945;53.350;55.922;2023-02-28T00:32:25;9.20;;;4.53;;
60068;SDS011;45945;53.350;55.922;2023-02-28T00:33:26;7.63;;;3.85;;
60068;SDS011;45945;53.350;55.922;2023-02-28T00:34:28;9.32;;;5.38;;
60068;SDS011;45945;53.350;55.922;2023-02-28T00:35:29;9.82;;;5.53;;
60068;SDS011;45945;53.350;55.922;2023-02-28T00:36:49;9.68;;;5.78;;
60068;SDS011;45945;53.350;55.922;2023-02-28T00:37:49;9.00;;;5.32;;
60068;SDS011;45945;53.350;55.922;2023-02-28T00:38:50;10.07;;;6.05;;
60068;SDS011;45945;53.350;55.922;2023-02-28T00:39:51;10.15;;;5.40;;
60068;SDS011;45945;53.350;55.922;2023-02-28T00:40:52;9.00;;;5.50;;
60068;SDS011;45945;53.350;55.922;2023-02-28T00:41:52;9.93;;;6.13;;
60068;SDS011;45945;53.350;55.922;2023-02-28T00:42:53;9.40;;;4.97;;
60068;SDS011;45945;53.350;55.922;2023-02-28T00:43:54;8.90;;;4.95;;
60068;SDS011;45945;53.350;55.922;2023-02-28T00:44:55;8.40;;;4.30;;
60068;SDS011;45945;53.350;55.922;2023-02-28T00:45:55;9.23;;;5.55;;
60068;SDS011;45945;53.350;55.922;2023-02-28T00:46:58;8.70;;;4.88;;
60068;SDS011;45945;53.350;55.922;2023-02-28T00:47:59;8.45;;;4.78;;
60068;SDS011;45945;53.350;55.922;2023-02-28T00:49:00;8.90;;;5.10;;
60068;SDS011;45945;53.350;55.922;2023-02-28T00:50:00;10.55;;;5.88;;
60068;SDS011;45945;53.350;55.922;2023-02-28T00:51:03;10.30;;;6.85;;
60068;SDS011;45945;53.350;55.922;2023-02-28T00:52:05;9.68;;;5.35;;
60068;SDS011;45945;53.350;55.922;2023-02-28T00:53:06;9.98;;;5.38;;
60068;SDS011;45945;53.350;55.922;2023-02-28T00:54:06;8.88;;;4.38;;
60068;SDS011;45945;53.350;55.922;2023-02-28T00:55:07;8.82;;;4.50;;
60068;SDS011;45945;53.350;55.922;2023-02-28T00:56:08;10.40;;;7.35;;
60068;SDS011;45945;53.350;55.922;2023-02-28T00:57:09;9.23;;;5.65;;
60068;SDS011;45945;53.350;55.922;2023-02-28T00:58:09;8.98;;;4.75;;
60068;SDS011;45945;53.350;55.922;2023-02-28T00:59:10;9.13;;;5.03;;
60068;SDS011;45945;53.350;55.922;2023-02-28T01:00:12;9.85;;;5.18;;
60068;SDS011;45945;53.350;55.922;2023-02-28T01:01:13;10.43;;;6.05;;
60068;SDS011;45945;53.350;55.922;2023-02-28T01:02:14;10.07;;;4.60;;
60068;SDS011;45945;53.350;55.922;2023-02-28T01:03:16;11.02;;;5.93;;
60068;SDS011;45945;53.350;55.922;2023-02-28T01:04:36;10.10;;;5.57;;
60068;SDS011;45945;53.350;55.922;2023-02-28T01:05:36;9.70;;;6.07;;
60068;SDS011;45945;53.350;55.922;2023-02-28T01:06:37;10.93;;;5.50;;
60068;SDS011;45945;53.350;55.922;2023-02-28T01:07:38;8.40;;;4.35;;
60068;SDS011;45945;53.350;55.922;2023-02-28T01:08:39;9.68;;;5.57;;
60068;SDS011;45945;53.350;55.922;2023-02-28T01:09:40;10.30;;;5.22;;
60068;SDS011;45945;53.350;55.922;2023-02-28T01:10:41;8.52;;;5.07;;
60068;SDS011;45945;53.350;55.922;2023-02-28T01:11:42;12.15;;;6.85;;
60068;SDS011;45945;53.350;55.922;2023-02-28T01:12:44;11.15;;;5.82;;
60068;SDS011;45945;53.350;55.922;2023-02-28T01:14:05;8.57;;;3.92;;
60068;SDS011;45945;53.350;55.922;2023-02-28T01:15:06;10.13;;;5.45;;
60068;SDS011;45945;53.350;55.922;2023-02-28T01:16:07;10.05;;;5.10;;
60068;SDS011;45945;53.350;55.922;2023-02-28T01:17:09;8.70;;;4.32;;
60068;SDS011;45945;53.350;55.922;2023-02-28T01:18:12;9.35;;;5.13;;
60068;SDS011;45945;53.350;55.922;2023-02-28T01:19:13;8.35;;;4.53;;
60068;SDS011;45945;53.350;55.922;2023-02-28T01:20:14;8.77;;;4.70;;
60068;SDS011;45945;53.350;55.922;2023-02-28T01:21:16;11.20;;;5.68;;
60068;SDS011;45945;53.350;55.922;2023-02-28T01:22:18;10.35;;;4.68;;
60068;SDS011;45945;53.350;55.922;2023-02-28T01:23:20;9.32;;;5.47;;
60068;SDS011;45945;53.350;55.922;2023-02-28T01:24:22;10.73;;;6.30;;
60068;SDS011;45945;53.350;55.922;2023-02-28T01:25:23;14.30;;;7.85;;
60068;SDS011;45945;53.350;55.922;2023-02-28T01:26:23;8.70;;;4.80;;
60068;SDS011;45945;53.350;55.922;2023-02-28T01:27:24;9.88;;;5.47;;
60068;SDS011;45945;53.350;55.922;2023-02-28T01:28:26;10.23;;;6.18;;
60068;SDS011;45945;53.350;55.922;2023-02-28T01:29:27;10.32;;;4.88;;
60068;SDS011;45945;53.350;55.922;2023-02-28T01:30:28;10.93;;;6.38;;
60068;SDS011;45945;53.350;55.922;2023-02-28T01:31:28;10.85;;;6.25;;
60068;SDS011;45945;53.350;55.922;2023-02-28T01:32:29;17.05;;;8.70;;
60068;SDS011;45945;53.350;55.922;2023-02-28T01:33:31;14.38;;;9.15;;
60068;SDS011;45945;53.350;55.922;2023-02-28T01:34:33;14.60;;;7.88;;
60068;SDS011;45945;53.350;55.922;2023-02-28T01:35:35;13.30;;;8.05;;
60068;SDS011;45945;53.350;55.922;2023-02-28T01:36:36;13.25;;;7.78;;
60068;SDS011;45945;53.350;55.922;2023-02-28T01:37:36;13.38;;;7.22;;
60068;SDS011;45945;53.350;55.922;2023-02-28T01:38:37;17.77;;;10.50;;
60068;SDS011;45945;53.350;55.922;2023-02-28T01:39:38;14.15;;;8.10;;
60068;SDS011;45945;53.350;55.922;2023-02-28T01:40:39;11.73;;;6.70;;
60068;SDS011;45945;53.350;55.922;2023-02-28T01:41:39;19.75;;;10.10;;
60068;SDS011;45945;53.350;55.922;2023-02-28T01:42:41;16.75;;;9.13;;
60068;SDS011;45945;53.350;55.922;2023-02-28T01:45:03;16.70;;;9.85;;
60068;SDS011;45945;53.350;55.922;2023-02-28T01:46:06;13.20;;;7.57;;
60068;SDS011;45945;53.350;55.922;2023-02-28T01:47:06;14.25;;;8.38;;
60068;SDS011;45945;53.350;55.922;2023-02-28T01:48:07;15.35;;;8.27;;
60068;SDS011;45945;53.350;55.922;2023-02-28T01:49:13;19.83;;;12.65;;
60068;SDS011;45945;53.350;55.922;2023-02-28T01:50:16;21.58;;;11.80;;
60068;SDS011;45945;53.350;55.922;2023-02-28T01:51:19;16.92;;;9.85;;
60068;SDS011;45945;53.350;55.922;2023-02-28T01:52:21;22.70;;;12.88;;
60068;SDS011;45945;53.350;55.922;2023-02-28T01:53:24;19.58;;;10.98;;
60068;SDS011;45945;53.350;55.922;2023-02-28T01:54:28;17.58;;;11.18;;
60068;SDS011;45945;53.350;55.922;2023-02-28T01:55:30;16.77;;;9.80;;
60068;SDS011;45945;53.350;55.922;2023-02-28T01:56:32;18.85;;;10.30;;
60068;SDS011;45945;53.350;55.922;2023-02-28T01:57:36;17.30;;;9.45;;
60068;SDS011;45945;53.350;55.922;2023-02-28T01:58:38;13.52;;;7.50;;
60068;SDS011;45945;53.350;55.922;2023-02-28T01:59:41;18.02;;;11.15;;
60068;SDS011;45945;53.350;55.922;2023-02-28T02:00:46;20.08;;;11.70;;
60068;SDS011;45945;53.350;55.922;2023-02-28T02:01:48;18.88;;;13.55;;
60068;SDS011;45945;53.350;55.922;2023-02-28T02:02:50;19.17;;;11.38;;
60068;SDS011;45945;53.350;55.922;2023-02-28T02:03:53;24.90;;;13.60;;
60068;SDS011;45945;53.350;55.922;2023-02-28T02:05:00;21.58;;;12.90;;
60068;SDS011;45945;53.350;55.922;2023-02-28T02:06:03;25.27;;;14.68;;
60068;SDS011;45945;53.350;55.922;2023-02-28T02:07:04;21.02;;;12.00;;
60068;SDS011;45945;53.350;55.922;2023-02-28T02:08:24;43.30;;;23.23;;
60068;SDS011;45945;53.350;55.922;2023-02-28T02:09:44;17.60;;;9.93;;
60068;SDS011;45945;53.350;55.922;2023-02-28T02:11:05;23.48;;;12.15;;
60068;SDS011;45945;53.350;55.922;2023-02-28T02:12:13;20.50;;;12.30;;
60068;SDS011;45945;53.350;55.922;2023-02-28T02:14:33;21.80;;;11.40;;
60068;SDS011;45945;53.350;55.922;2023-02-28T02:17:47;25.55;;;13.43;;
60068;SDS011;45945;53.350;55.922;2023-02-28T02:18:51;29.98;;;14.98;;
60068;SDS011;45945;53.350;55.922;2023-02-28T02:22:21;21.45;;;12.50;;
60068;SDS011;45945;53.350;55.922;2023-02-28T02:23:38;19.60;;;11.38;;
60068;SDS011;45945;53.350;55.922;2023-02-28T02:27:57;15.18;;;7.57;;
60068;SDS011;45945;53.350;55.922;2023-02-28T02:33:40;16.50;;;9.50;;
60068;SDS011;45945;53.350;55.922;2023-02-28T02:38:19;18.70;;;10.73;;
60068;SDS011;45945;53.350;55.922;2023-02-28T02:40:43;17.25;;;9.63;;
60068;SDS011;45945;53.350;55.922;2023-02-28T02:41:51;13.52;;;6.97;;
60068;SDS011;45945;53.350;55.922;2023-02-28T02:42:59;13.15;;;7.07;;
60068;SDS011;45945;53.350;55.922;2023-02-28T02:44:02;12.93;;;6.22;;
60068;SDS011;45945;53.350;55.922;2023-02-28T02:45:06;19.92;;;11.27;;
60068;SDS011;45945;53.350;55.922;2023-02-28T02:46:31;15.40;;;8.95;;
60068;SDS011;45945;53.350;55.922;2023-02-28T02:47:30;13.15;;;5.95;;
60068;SDS011;45945;53.350;55.922;2023-02-28T02:48:32;16.35;;;9.95;;
60068;SDS011;45945;53.350;55.922;2023-02-28T02:49:53;14.85;;;9.20;;
60068;SDS011;45945;53.350;55.922;2023-02-28T02:50:58;16.05;;;9.55;;
60068;SDS011;45945;53.350;55.922;2023-02-28T02:52:07;16.17;;;10.30;;
60068;SDS011;45945;53.350;55.922;2023-02-28T02:53:09;18.50;;;10.75;;
60068;SDS011;45945;53.350;55.922;2023-02-28T02:54:16;12.10;;;6.97;;
60068;SDS011;45945;53.350;55.922;2023-02-28T02:55:18;18.17;;;9.23;;
60068;SDS011;45945;53.350;55.922;2023-02-28T02:56:23;19.23;;;9.82;;
60068;SDS011;45945;53.350;55.922;2023-02-28T02:57:43;19.85;;;11.23;;
60068;SDS011;45945;53.350;55.922;2023-02-28T02:58:45;18.92;;;10.52;;
60068;SDS011;45945;53.350;55.922;2023-02-28T02:59:47;17.30;;;10.15;;
60068;SDS011;45945;53.350;55.922;2023-02-28T03:00:54;16.80;;;9.65;;
60068;SDS011;45945;53.350;55.922;2023-02-28T03:01:57;17.95;;;8.80;;
60068;SDS011;45945;53.350;55.922;2023-02-28T03:02:59;21.98;;;11.60;;
60068;SDS011;45945;53.350;55.922;2023-02-28T03:04:01;16.98;;;9.07;;
60068;SDS011;45945;53.350;55.922;2023-02-28T03:05:07;17.67;;;8.65;;
60068;SDS011;45945;53.350;55.922;2023-02-28T03:06:09;16.63;;;9.77;;
60068;SDS011;45945;53.350;55.922;2023-02-28T03:07:11;19.00;;;10.10;;
60068;SDS011;45945;53.350;55.922;2023-02-28T03:08:12;19.55;;;10.77;;
60068;SDS011;45945;53.350;55.922;2023-02-28T03:09:13;20.05;;;10.48;;
60068;SDS011;45945;53.350;55.922;2023-02-28T03:10:27;16.42;;;9.32;;
60068;SDS011;45945;53.350;55.922;2023-02-28T03:11:28;21.77;;;11.57;;
60068;SDS011;45945;53.350;55.922;2023-02-28T03:12:34;21.17;;;10.68;;
60068;SDS011;45945;53.350;55.922;2023-02-28T03:14:46;22.52;;;12.07;;
60068;SDS011;45945;53.350;55.922;2023-02-28T03:17:07;28.50;;;9.57;;
60068;SDS011;45945;53.350;55.922;2023-02-28T03:18:10;18.98;;;10.93;;
60068;SDS011;45945;53.350;55.922;2023-02-28T03:20:33;21.65;;;11.80;;
60068;SDS011;45945;53.350;55.922;2023-02-28T03:22:46;13.73;;;7.95;;
60068;SDS011;45945;53.350;55.922;2023-02-28T03:24:56;19.38;;;10.35;;
60068;SDS011;45945;53.350;55.922;2023-02-28T03:27:02;13.10;;;7.63;;
60068;SDS011;45945;53.350;55.922;2023-02-28T03:28:08;18.17;;;9.07;;
60068;SDS011;45945;53.350;55.922;2023-02-28T03:29:13;24.42;;;11.57;;
60068;SDS011;45945;53.350;55.922;2023-02-28T03:30:25;21.25;;;10.85;;
60068;SDS011;45945;53.350;55.922;2023-02-28T03:32:29;18.55;;;9.73;;
60068;SDS011;45945;53.350;55.922;2023-02-28T03:33:38;17.30;;;9.38;;
60068;SDS011;45945;53.350;55.922;2023-02-28T03:34:41;21.90;;;11.45;;
60068;SDS011;45945;53.350;55.922;2023-02-28T03:35:45;15.25;;;7.03;;
60068;SDS011;45945;53.350;55.922;2023-02-28T03:36:50;19.38;;;10.43;;
60068;SDS011;45945;53.350;55.922;2023-02-28T03:37:55;22.40;;;12.18;;
60068;SDS011;45945;53.350;55.922;2023-02-28T03:39:19;21.65;;;11.38;;
60068;SDS011;45945;53.350;55.922;2023-02-28T03:40:21;20.35;;;10.45;;
60068;SDS011;45945;53.350;55.922;2023-02-28T03:41:24;23.50;;;11.27;;
60068;SDS011;45945;53.350;55.922;2023-02-28T03:42:27;22.30;;;11.45;;
60068;SDS011;45945;53.350;55.922;2023-02-28T03:43:31;22.48;;;10.75;;
60068;SDS011;45945;53.350;55.922;2023-02-28T03:44:38;18.52;;;12.25;;
60068;SDS011;45945;53.350;55.922;2023-02-28T03:45:39;18.90;;;8.93;;
60068;SDS011;45945;53.350;55.922;2023-02-28T03:46:44;19.08;;;10.52;;
60068;SDS011;45945;53.350;55.922;2023-02-28T03:47:49;19.73;;;9.20;;
60068;SDS011;45945;53.350;55.922;2023-02-28T03:48:55;20.02;;;10.23;;
60068;SDS011;45945;53.350;55.922;2023-02-28T03:50:08;16.25;;;9.23;;
60068;SDS011;45945;53.350;55.922;2023-02-28T03:51:12;22.17;;;11.55;;
60068;SDS011;45945;53.350;55.922;2023-02-28T03:52:14;21.13;;;11.43;;
60068;SDS011;45945;53.350;55.922;2023-02-28T03:53:35;19.83;;;10.80;;
60068;SDS011;45945;53.350;55.922;2023-02-28T03:54:41;20.48;;;10.55;;
60068;SDS011;45945;53.350;55.922;2023-02-28T03:55:50;18.52;;;9.73;;
60068;SDS011;45945;53.350;55.922;2023-02-28T03:57:12;18.60;;;10.32;;
60068;SDS011;45945;53.350;55.922;2023-02-28T03:58:20;19.77;;;10.32;;
60068;SDS011;45945;53.350;55.922;2023-02-28T03:59:27;21.00;;;11.05;;
60068;SDS011;45945;53.350;55.922;2023-02-28T04:00:35;18.45;;;10.20;;
60068;SDS011;45945;53.350;55.922;2023-02-28T04:01:39;20.45;;;10.90;;
60068;SDS011;45945;53.350;55.922;2023-02-28T04:02:41;20.77;;;11.10;;
60068;SDS011;45945;53.350;55.922;2023-02-28T04:03:42;20.08;;;10.02;;
60068;SDS011;45945;53.350;55.922;2023-02-28T04:04:43;19.92;;;10.55;;
60068;SDS011;45945;53.350;55.922;2023-02-28T04:05:54;18.13;;;9.18;;
60068;SDS011;45945;53.350;55.922;2023-02-28T04:07:06;20.30;;;11.75;;
60068;SDS011;45945;53.350;55.922;2023-02-28T04:08:26;20.80;;;11.10;;
60068;SDS011;45945;53.350;55.922;2023-02-28T04:09:46;20.48;;;11.48;;
60068;SDS011;45945;53.350;55.922;2023-02-28T04:10:48;18.45;;;9.75;;
60068;SDS011;45945;53.350;55.922;2023-02-28T04:12:09;20.48;;;10.40;;
60068;SDS011;45945;53.350;55.922;2023-02-28T04:13:09;18.60;;;10.27;;
60068;SDS011;45945;53.350;55.922;2023-02-28T04:14:10;18.40;;;10.43;;
60068;SDS011;45945;53.350;55.922;2023-02-28T04:15:11;19.50;;;11.23;;
60068;SDS011;45945;53.350;55.922;2023-02-28T04:16:12;19.55;;;11.45;;
60068;SDS011;45945;53.350;55.922;2023-02-28T04:17:13;18.15;;;9.82;;
60068;SDS011;45945;53.350;55.922;2023-02-28T04:18:13;17.48;;;10.38;;
60068;SDS011;45945;53.350;55.922;2023-02-28T04:19:14;16.55;;;9.63;;
60068;SDS011;45945;53.350;55.922;2023-02-28T04:20:15;18.33;;;9.93;;
60068;SDS011;45945;53.350;55.922;2023-02-28T04:21:16;18.08;;;9.68;;
60068;SDS011;45945;53.350;55.922;2023-02-28T04:22:20;18.13;;;10.65;;
60068;SDS011;45945;53.350;55.922;2023-02-28T04:23:21;17.55;;;11.13;;
60068;SDS011;45945;53.350;55.922;2023-02-28T04:24:23;16.25;;;9.30;;
60068;SDS011;45945;53.350;55.922;2023-02-28T04:25:24;19.30;;;10.73;;
60068;SDS011;45945;53.350;55.922;2023-02-28T04:26:25;18.17;;;10.77;;
60068;SDS011;45945;53.350;55.922;2023-02-28T04:27:25;15.95;;;9.00;;
60068;SDS011;45945;53.350;55.922;2023-02-28T04:28:26;18.10;;;8.77;;
60068;SDS011;45945;53.350;55.922;2023-02-28T04:29:28;15.48;;;9.00;;
60068;SDS011;45945;53.350;55.922;2023-02-28T04:30:29;13.80;;;6.85;;
60068;SDS011;45945;53.350;55.922;2023-02-28T04:31:33;17.13;;;9.80;;
60068;SDS011;45945;53.350;55.922;2023-02-28T04:32:34;16.63;;;8.43;;
60068;SDS011;45945;53.350;55.922;2023-02-28T04:33:35;17.75;;;9.73;;
60068;SDS011;45945;53.350;55.922;2023-02-28T04:34:35;15.93;;;8.43;;
60068;SDS011;45945;53.350;55.922;2023-02-28T04:35:36;16.98;;;10.52;;
60068;SDS011;45945;53.350;55.922;2023-02-28T04:36:37;17.80;;;10.48;;
60068;SDS011;45945;53.350;55.922;2023-02-28T04:37:37;14.90;;;8.18;;
60068;SDS011;45945;53.350;55.922;2023-02-28T04:38:38;16.30;;;10.32;;
60068;SDS011;45945;53.350;55.922;2023-02-28T04:39:39;16.90;;;9.65;;
60068;SDS011;45945;53.350;55.922;2023-02-28T04:40:44;16.35;;;8.63;;
60068;SDS011;45945;53.350;55.922;2023-02-28T04:41:45;17.50;;;8.48;;
60068;SDS011;45945;53.350;55.922;2023-02-28T04:42:45;14.98;;;7.82;;
60068;SDS011;45945;53.350;55.922;2023-02-28T04:43:46;16.73;;;8.93;;
60068;SDS011;45945;53.350;55.922;2023-02-28T04:44:47;16.30;;;8.68;;
60068;SDS011;45945;53.350;55.922;2023-02-28T04:45:48;14.38;;;6.97;;
60068;SDS011;45945;53.350;55.922;2023-02-28T04:46:49;16.42;;;9.43;;
60068;SDS011;45945;53.350;55.922;2023-02-28T04:47:50;17.88;;;10.10;;
60068;SDS011;45945;53.350;55.922;2023-02-28T04:48:51;14.55;;;7.88;;
60068;SDS011;45945;53.350;55.922;2023-02-28T04:49:52;14.68;;;8.60;;
60068;SDS011;45945;53.350;55.922;2023-02-28T04:50:52;16.48;;;9.20;;
60068;SDS011;45945;53.350;55.922;2023-02-28T04:51:53;12.52;;;6.30;;
60068;SDS011;45945;53.350;55.922;2023-02-28T04:52:54;16.75;;;9.85;;
60068;SDS011;45945;53.350;55.922;2023-02-28T04:53:55;16.98;;;9.68;;
60068;SDS011;45945;53.350;55.922;2023-02-28T04:54:56;17.13;;;9.23;;
60068;SDS011;45945;53.350;55.922;2023-02-28T04:55:57;16.63;;;9.95;;
60068;SDS011;45945;53.350;55.922;2023-02-28T04:56:58;17.88;;;9.25;;
60068;SDS011;45945;53.350;55.922;2023-02-28T04:57:58;15.30;;;8.80;;
60068;SDS011;45945;53.350;55.922;2023-02-28T04:58:59;15.15;;;8.57;;
60068;SDS011;45945;53.350;55.922;2023-02-28T05:00:00;16.13;;;8.77;;
60068;SDS011;45945;53.350;55.922;2023-02-28T05:02:20;13.52;;;6.22;;
60068;SDS011;45945;53.350;55.922;2023-02-28T05:03:21;15.65;;;10.40;;
60068;SDS011;45945;53.350;55.922;2023-02-28T05:04:23;15.75;;;10.60;;
60068;SDS011;45945;53.350;55.922;2023-02-28T05:05:24;14.98;;;8.60;;
60068;SDS011;45945;53.350;55.922;2023-02-28T05:06:26;17.15;;;9.25;;
60068;SDS011;45945;53.350;55.922;2023-02-28T05:07:27;12.50;;;6.63;;
60068;SDS011;45945;53.350;55.922;2023-02-28T05:08:28;14.73;;;8.23;;
60068;SDS011;45945;53.350;55.922;2023-02-28T05:09:30;17.73;;;9.77;;
60068;SDS011;45945;53.350;55.922;2023-02-28T05:10:33;16.85;;;9.88;;
60068;SDS011;45945;53.350;55.922;2023-02-28T05:11:34;17.63;;;9.43;;
60068;SDS011;45945;53.350;55.922;2023-02-28T05:12:35;16.88;;;8.77;;
60068;SDS011;45945;53.350;55.922;2023-02-28T05:13:36;16.58;;;9.07;;
60068;SDS011;45945;53.350;55.922;2023-02-28T05:14:37;15.82;;;11.48;;
60068;SDS011;45945;53.350;55.922;2023-02-28T05:15:37;15.25;;;8.63;;
60068;SDS011;45945;53.350;55.922;2023-02-28T05:16:39;15.52;;;8.35;;
60068;SDS011;45945;53.350;55.922;2023-02-28T05:17:39;15.35;;;8.57;;
60068;SDS011;45945;53.350;55.922;2023-02-28T05:18:40;11.68;;;6.85;;
60068;SDS011;45945;53.350;55.922;2023-02-28T05:19:44;13.93;;;7.40;;
60068;SDS011;45945;53.350;55.922;2023-02-28T05:20:45;14.95;;;7.63;;
60068;SDS011;45945;53.350;55.922;2023-02-28T05:21:49;11.77;;;6.00;;
60068;SDS011;45945;53.350;55.922;2023-02-28T05:22:51;11.65;;;6.32;;
60068;SDS011;45945;53.350;55.922;2023-02-28T05:23:53;12.57;;;6.50;;
60068;SDS011;45945;53.350;55.922;2023-02-28T05:24:53;9.35;;;4.25;;
60068;SDS011;45945;53.350;55.922;2023-02-28T05:25:54;11.13;;;5.70;;
60068;SDS011;45945;53.350;55.922;2023-02-28T05:26:55;10.18;;;5.28;;
60068;SDS011;45945;53.350;55.922;2023-02-28T05:27:56;11.10;;;5.28;;
60068;SDS011;45945;53.350;55.922;2023-02-28T05:28:57;11.27;;;5.55;;
60068;SDS011;45945;53.350;55.922;2023-02-28T05:29:57;12.18;;;6.65;;
60068;SDS011;45945;53.350;55.922;2023-02-28T05:30:59;12.63;;;6.55;;
60068;SDS011;45945;53.350;55.922;2023-02-28T05:32:00;9.88;;;5.85;;
60068;SDS011;45945;53.350;55.922;2023-02-28T05:33:00;9.57;;;5.43;;
60068;SDS011;45945;53.350;55.922;2023-02-28T05:34:01;10.85;;;5.28;;
60068;SDS011;45945;53.350;55.922;2023-02-28T05:35:04;12.95;;;6.47;;
60068;SDS011;45945;53.350;55.922;2023-02-28T05:36:05;9.52;;;5.10;;
60068;SDS011;45945;53.350;55.922;2023-02-28T05:37:08;11.15;;;5.35;;
60068;SDS011;45945;53.350;55.922;2023-02-28T05:38:11;11.45;;;6.03;;
60068;SDS011;45945;53.350;55.922;2023-02-28T05:39:12;12.30;;;6.53;;
60068;SDS011;45945;53.350;55.922;2023-02-28T05:40:13;13.05;;;6.47;;
60068;SDS011;45945;53.350;55.922;2023-02-28T05:41:15;10.02;;;5.60;;
60068;SDS011;45945;53.350;55.922;2023-02-28T05:42:16;9.38;;;4.22;;
60068;SDS011;45945;53.350;55.922;2023-02-28T05:43:17;10.13;;;5.47;;
60068;SDS011;45945;53.350;55.922;2023-02-28T05:44:17;9.30;;;4.20;;
60068;SDS011;45945;53.350;55.922;2023-02-28T05:45:18;11.95;;;5.45;;
60068;SDS011;45945;53.350;55.922;2023-02-28T05:46:19;10.77;;;5.07;;
60068;SDS011;45945;53.350;55.922;2023-02-28T05:47:20;9.57;;;4.60;;
60068;SDS011;45945;53.350;55.922;2023-02-28T05:48:21;10.02;;;4.82;;
60068;SDS011;45945;53.350;55.922;2023-02-28T05:49:22;9.70;;;5.07;;
60068;SDS011;45945;53.350;55.922;2023-02-28T05:50:23;9.52;;;5.28;;
60068;SDS011;45945;53.350;55.922;2023-02-28T05:51:23;9.07;;;4.95;;
60068;SDS011;45945;53.350;55.922;2023-02-28T05:52:24;10.15;;;5.35;;
60068;SDS011;45945;53.350;55.922;2023-02-28T05:53:25;10.10;;;4.18;;
60068;SDS011;45945;53.350;55.922;2023-02-28T05:54:26;10.05;;;4.95;;
60068;SDS011;45945;53.350;55.922;2023-02-28T05:55:27;9.52;;;4.85;;
60068;SDS011;45945;53.350;55.922;2023-02-28T05:56:28;10.00;;;4.68;;
60068;SDS011;45945;53.350;55.922;2023-02-28T05:57:28;9.85;;;5.32;;
60068;SDS011;45945;53.350;55.922;2023-02-28T05:58:29;10.43;;;4.93;;
60068;SDS011;45945;53.350;55.922;2023-02-28T05:59:31;7.65;;;3.97;;
60068;SDS011;45945;53.350;55.922;2023-02-28T06:00:32;9.82;;;5.15;;
60068;SDS011;45945;53.350;55.922;2023-02-28T06:01:34;9.55;;;5.18;;
60068;SDS011;45945;53.350;55.922;2023-02-28T06:02:35;10.50;;;5.05;;
60068;SDS011;45945;53.350;55.922;2023-02-28T06:03:35;9.10;;;4.68;;
60068;SDS011;45945;53.350;55.922;2023-02-28T06:04:36;10.90;;;5.15;;
60068;SDS011;45945;53.350;55.922;2023-02-28T06:05:37;7.50;;;3.92;;
60068;SDS011;45945;53.350;55.922;2023-02-28T06:06:38;7.90;;;3.50;;
60068;SDS011;45945;53.350;55.922;2023-02-28T06:07:39;8.20;;;4.43;;
60068;SDS011;45945;53.350;55.922;2023-02-28T06:08:40;8.70;;;4.10;;
60068;SDS011;45945;53.350;55.922;2023-02-28T06:09:41;8.13;;;3.38;;
60068;SDS011;45945;53.350;55.922;2023-02-28T06:10:42;8.05;;;3.80;;
60068;SDS011;45945;53.350;55.922;2023-02-28T06:11:43;7.70;;;3.58;;
60068;SDS011;45945;53.350;55.922;2023-02-28T06:12:43;7.35;;;3.42;;
60068;SDS011;45945;53.350;55.922;2023-02-28T06:13:44;6.53;;;2.88;;
60068;SDS011;45945;53.350;55.922;2023-02-28T06:14:45;7.80;;;3.72;;
60068;SDS011;45945;53.350;55.922;2023-02-28T06:15:46;9.00;;;3.40;;
60068;SDS011;45945;53.350;55.922;2023-02-28T06:16:46;7.10;;;3.38;;
60068;SDS011;45945;53.350;55.922;2023-02-28T06:17:47;7.28;;;3.60;;
60068;SDS011;45945;53.350;55.922;2023-02-28T06:18:48;6.25;;;2.92;;
60068;SDS011;45945;53.350;55.922;2023-02-28T06:19:49;6.03;;;2.40;;
60068;SDS011;45945;53.350;55.922;2023-02-28T06:20:53;6.70;;;3.13;;
60068;SDS011;45945;53.350;55.922;2023-02-28T06:21:55;8.18;;;3.75;;
60068;SDS011;45945;53.350;55.922;2023-02-28T06:22:57;6.85;;;3.30;;
60068;SDS011;45945;53.350;55.922;2023-02-28T06:23:59;7.28;;;3.13;;
60068;SDS011;45945;53.350;55.922;2023-02-28T06:24:59;6.18;;;3.03;;
60068;SDS011;45945;53.350;55.922;2023-02-28T06:26:00;7.32;;;3.65;;
60068;SDS011;45945;53.350;55.922;2023-02-28T06:27:01;6.40;;;2.75;;
60068;SDS011;45945;53.350;55.922;2023-02-28T06:28:05;7.25;;;3.80;;
60068;SDS011;45945;53.350;55.922;2023-02-28T06:29:06;7.50;;;3.78;;
60068;SDS011;45945;53.350;55.922;2023-02-28T06:30:07;7.00;;;3.30;;
60068;SDS011;45945;53.350;55.922;2023-02-28T06:31:09;7.03;;;3.28;;
60068;SDS011;45945;53.350;55.922;2023-02-28T06:32:10;5.93;;;3.40;;
60068;SDS011;45945;53.350;55.922;2023-02-28T06:33:11;6.38;;;3.25;;
60068;SDS011;45945;53.350;55.922;2023-02-28T06:34:12;6.82;;;2.70;;
60068;SDS011;45945;53.350;55.922;2023-02-28T06:35:13;8.48;;;3.90;;
60068;SDS011;45945;53.350;55.922;2023-02-28T06:36:14;7.18;;;2.85;;
60068;SDS011;45945;53.350;55.922;2023-02-28T06:37:15;7.07;;;3.53;;
60068;SDS011;45945;53.350;55.922;2023-02-28T06:38:16;6.28;;;3.20;;
60068;SDS011;45945;53.350;55.922;2023-02-28T06:39:17;6.60;;;3.17;;